Bensenville, Illinois
Current Conditions -  °F | °C
As of 7:51 AM on Saturday 25 Oct 2014 (Local Time) from KORD Reporting Station
Haze Haze  
Wind Chill: 55°   Ceiling: Unl
Heat Index: 55°   Visibility: 3mi
Dew Point: 53°   Wind: 6mph
Humidity: 93%   Direction: 270°W
Pressure: 29.91"   Gusts: NA
Location:  41.96°N, 87.94°W
Report Text: KORD 251251Z 27005KT 3SM BR FEW010 13/12 A2991 RMK AO2 SLP127 T01280117
Loading
Personal Weather Stations






























Interactive Weather Map
Tropical Storm Tracking
New forecast layout! Learn more

10-Day Weather Forecast

Advertisements
Track Severe Weather on mobile